Time;durP1;ratioP1;P1;durP2;ratioP2;P2;SDS_P1;SDS_P2;PMS_P1;PMS_P2;Temp;Humidity;BMP_temperature;BMP_pressure;BME280_temperature;BME280_humidity;BME280_pressure;Samples;Min_cycle;Max_cycle;Signal;HPM_P1;HPM_P2
2023/04/19 00:01:37;;;;;;;9.50;6.95;;;;;;;12.04;58.61;101340.00;4130094;28;20058;-69
2023/04/19 00:03:39;;;;;;;15.38;7.72;;;;;;;11.78;59.64;101339.38;4129189;28;20049;-69
2023/04/19 00:05:43;;;;;;;9.15;6.88;;;;;;;11.82;58.89;101336.00;4126886;28;20046;-69
2023/04/19 00:07:46;;;;;;;10.73;6.57;;;;;;;11.74;59.27;101337.53;4128446;28;20034;-69
2023/04/19 00:09:51;;;;;;;12.15;8.18;;;;;;;11.72;59.17;101334.03;4126999;28;20043;-69
2023/04/19 00:11:53;;;;;;;9.13;6.93;;;;;;;11.73;59.23;101325.38;4112290;28;20047;-69
2023/04/19 00:13:56;;;;;;;10.02;7.45;;;;;;;11.74;59.66;101328.00;4122086;28;20382;-69
2023/04/19 00:15:59;;;;;;;11.15;7.72;;;;;;;11.94;59.05;101332.81;4124329;28;20061;-69
2023/04/19 00:18:02;;;;;;;12.38;7.88;;;;;;;11.81;59.29;101326.41;4127053;28;20458;-69
2023/04/19 00:20:07;;;;;;;10.30;7.65;;;;;;;11.69;59.75;101319.19;4112224;28;20059;-69
2023/04/19 00:22:09;;;;;;;11.38;7.63;;;;;;;11.84;59.38;101329.09;4126814;28;20117;-69
2023/04/19 00:24:12;;;;;;;9.85;6.57;;;;;;;11.76;59.06;101320.22;4112272;28;20050;-69
2023/04/19 00:26:17;;;;;;;10.38;7.07;;;;;;;11.80;59.70;101307.31;4124964;28;20038;-68
2023/04/19 00:28:25;;;;;;;11.07;7.18;;;;;;;11.73;59.26;101309.75;4128176;28;20043;-68
2023/04/19 00:30:28;;;;;;;13.85;7.85;;;;;;;11.92;59.26;101314.50;4114241;28;20086;-69
2023/04/19 00:32:32;;;;;;;9.65;7.10;;;;;;;11.72;59.46;101324.47;4111469;28;20558;-69
2023/04/19 00:34:35;;;;;;;11.75;8.05;;;;;;;11.74;59.86;101317.59;4128790;28;20034;-70
2023/04/19 00:36:38;;;;;;;10.05;7.13;;;;;;;11.66;59.63;101308.72;4128566;28;20057;-70
2023/04/19 00:38:41;;;;;;;9.75;7.50;;;;;;;11.59;59.85;101312.88;4111089;28;20039;-69
2023/04/19 00:40:45;;;;;;;10.75;7.72;;;;;;;11.79;59.73;101317.69;4111537;28;20039;-69
2023/04/19 00:42:49;;;;;;;10.27;6.95;;;;;;;11.64;59.67;101310.41;4111485;28;20105;-69
2023/04/19 00:44:52;;;;;;;10.35;6.68;;;;;;;11.59;59.96;101307.66;4111163;28;20452;-69
2023/04/19 00:46:56;;;;;;;10.98;7.45;;;;;;;11.69;60.12;101314.84;4111040;28;20097;-69
2023/04/19 00:48:59;;;;;;;9.10;6.40;;;;;;;11.60;59.54;101308.56;4126761;28;20078;-69
2023/04/19 00:51:02;;;;;;;10.65;7.60;;;;;;;11.63;60.08;101312.13;4113424;28;20043;-69
2023/04/19 00:53:07;;;;;;;11.45;7.72;;;;;;;11.64;60.17;101311.28;4112436;28;20043;-69
2023/04/19 00:55:10;;;;;;;10.30;6.70;;;;;;;11.75;59.87;101308.03;4114691;28;20050;-69
2023/04/19 00:57:14;;;;;;;10.98;7.38;;;;;;;11.79;59.70;101305.53;4098365;29;20051;-69
2023/04/19 00:59:18;;;;;;;10.48;7.25;;;;;;;11.71;59.29;101317.53;4114376;28;20039;-70
2023/04/19 01:01:23;;;;;;;10.30;7.18;;;;;;;11.67;59.99;101316.56;4095428;28;20090;-69
2023/04/19 01:03:27;;;;;;;10.73;6.82;;;;;;;11.69;59.49;101312.25;4116830;28;20584;-68
2023/04/19 01:05:31;;;;;;;10.02;7.40;;;;;;;11.63;60.04;101312.13;4131425;28;20502;-69
2023/04/19 01:07:34;;;;;;;9.00;6.72;;;;;;;11.71;59.75;101307.09;4132625;28;20042;-69
2023/04/19 01:09:40;;;;;;;9.95;6.80;;;;;;;11.78;59.10;101306.38;4113200;28;20105;-69
2023/04/19 01:11:43;;;;;;;10.10;7.47;;;;;;;11.51;60.56;101304.91;4131600;28;20097;-70
2023/04/19 01:13:46;;;;;;;8.65;6.43;;;;;;;11.63;59.64;101308.66;4096555;29;20043;-69
2023/04/19 01:15:51;;;;;;;10.30;7.32;;;;;;;11.72;59.35;101306.25;4130427;28;20093;-68
2023/04/19 01:17:56;;;;;;;14.40;7.28;;;;;;;11.50;59.81;101300.53;4130266;28;20545;-70
2023/04/19 01:20:00;;;;;;;13.25;7.75;;;;;;;11.72;59.27;101308.84;4093203;29;20055;-69
2023/04/19 01:22:05;;;;;;;10.77;8.13;;;;;;;11.63;59.65;101301.69;4127279;28;20046;-69
2023/04/19 01:24:09;;;;;;;;;;;;;;;11.62;59.27;101294.75;4126440;28;20411;-70
2023/04/19 01:26:12;;;;;;;9.40;6.72;;;;;;;11.49;59.85;101290.97;4124048;28;19922;-70
2023/04/19 01:28:15;;;;;;;9.60;6.55;;;;;;;11.56;59.78;101296.31;4125234;28;20038;-70
2023/04/19 01:30:17;;;;;;;10.00;7.47;;;;;;;11.49;60.06;101296.19;4110496;28;20043;-70
2023/04/19 01:32:21;;;;;;;9.20;6.90;;;;;;;11.59;59.84;101286.84;4125868;28;20053;-70
2023/04/19 01:34:24;;;;;;;11.95;7.65;;;;;;;11.47;60.10;101287.44;4129497;28;20038;-70
2023/04/19 01:36:27;;;;;;;9.45;7.13;;;;;;;11.61;59.56;101284.25;4109063;28;20030;-70
2023/04/19 01:38:31;;;;;;;8.93;6.32;;;;;;;11.43;60.54;101283.00;4109676;28;20034;-70
2023/04/19 01:40:36;;;;;;;9.57;6.95;;;;;;;11.73;59.92;101284.56;4128713;28;20113;-70
2023/04/19 01:42:39;;;;;;;;;;;;;;;11.54;59.59;101278.06;4109720;28;20039;-70
2023/04/19 01:44:42;;;;;;;8.70;5.88;;;;;;;11.41;60.49;101276.88;4106245;28;19922;-70
2023/04/19 01:46:46;;;;;;;10.23;7.30;;;;;;;11.44;60.15;101281.28;4104437;28;20102;-70
2023/04/19 01:48:49;;;;;;;9.20;6.45;;;;;;;11.35;61.05;101277.59;4117527;28;20109;-70
2023/04/19 01:50:51;;;;;;;9.20;6.80;;;;;;;11.47;60.13;101276.16;4110927;28;20039;-70
2023/04/19 01:52:54;;;;;;;8.65;6.35;;;;;;;11.45;60.54;101268.31;4110470;28;20030;-70
2023/04/19 01:54:57;;;;;;;13.60;7.70;;;;;;;11.52;59.95;101265.00;4101982;28;20062;-69
2023/04/19 01:57:01;;;;;;;9.13;6.68;;;;;;;11.45;60.65;101270.03;4111445;28;20046;-69
2023/04/19 01:59:04;;;;;;;9.25;6.22;;;;;;;11.41;60.62;101270.81;4111044;28;20038;-69
2023/04/19 02:01:11;;;;;;;9.57;6.75;;;;;;;11.43;60.72;101264.75;4108696;28;20082;-70
2023/04/19 02:03:14;;;;;;;13.05;7.82;;;;;;;11.55;59.85;101263.28;4117396;28;20492;-70
2023/04/19 02:05:17;;;;;;;13.35;7.03;;;;;;;11.61;60.06;101264.34;4113663;28;20038;-70
2023/04/19 02:07:20;;;;;;;8.85;6.75;;;;;;;11.47;60.20;101260.53;4111806;28;20142;-70
2023/04/19 02:09:23;;;;;;;8.07;5.90;;;;;;;11.61;60.24;101260.81;4111404;28;20548;-70
2023/04/19 02:11:26;;;;;;;9.75;6.63;;;;;;;11.61;59.61;101258.22;4108496;28;20529;-69
2023/04/19 02:13:31;;;;;;;10.77;6.78;;;;;;;11.55;59.38;101252.88;4111630;28;20093;-70
2023/04/19 02:15:36;;;;;;;8.75;6.22;;;;;;;11.49;60.37;101248.41;4108823;28;20553;-69
2023/04/19 02:17:39;;;;;;;9.60;7.25;;;;;;;11.54;60.30;101252.00;4126296;28;20073;-70
2023/04/19 02:19:42;;;;;;;9.60;6.70;;;;;;;11.58;59.93;101252.94;4126898;28;20026;-70
2023/04/19 02:21:45;;;;;;;10.57;7.53;;;;;;;11.53;59.48;101247.63;4128207;28;20104;-70
2023/04/19 02:23:49;;;;;;;9.30;6.63;;;;;;;11.54;60.17;101252.00;4128534;28;20129;-70
2023/04/19 02:25:52;;;;;;;8.88;6.68;;;;;;;11.58;59.49;101258.16;4111997;28;20089;-70
2023/04/19 02:27:55;;;;;;;9.02;6.80;;;;;;;11.51;59.78;101257.16;4126380;28;20042;-70
2023/04/19 02:29:59;;;;;;;9.57;7.07;;;;;;;11.47;59.86;101250.97;4115093;28;20038;-70
2023/04/19 02:32:04;;;;;;;7.82;5.97;;;;;;;11.46;59.82;101251.84;4113417;28;20094;-69
2023/04/19 02:34:07;;;;;;;9.60;6.28;;;;;;;11.48;60.20;101254.47;4127653;28;20052;-69
2023/04/19 02:36:10;;;;;;;9.35;6.50;;;;;;;11.51;59.96;101252.81;4126485;28;20682;-70
2023/04/19 02:38:14;;;;;;;13.07;6.90;;;;;;;11.56;60.00;101254.66;4112105;28;20323;-70
2023/04/19 02:40:17;;;;;;;11.02;7.20;;;;;;;11.56;59.54;101244.22;4131648;28;20645;-70
2023/04/19 02:42:19;;;;;;;9.95;6.97;;;;;;;11.58;59.62;101247.75;4113250;28;20061;-70
2023/04/19 02:44:22;;;;;;;9.48;7.35;;;;;;;11.60;59.36;101246.06;4114563;28;20039;-69
2023/04/19 02:46:26;;;;;;;9.88;7.15;;;;;;;11.51;59.83;101245.00;4113565;28;20137;-69
2023/04/19 02:48:29;;;;;;;11.55;7.03;;;;;;;11.39;60.31;101246.44;4135983;28;20046;-69
2023/04/19 02:50:33;;;;;;;11.40;7.68;;;;;;;11.44;60.08;101245.69;4109065;28;20125;-70
2023/04/19 02:52:35;;;;;;;10.27;7.10;;;;;;;11.64;59.37;101247.91;4122016;28;20061;-69
2023/04/19 02:54:38;;;;;;;11.68;6.82;;;;;;;11.44;59.80;101245.69;4098739;28;20087;-69
2023/04/19 02:56:41;;;;;;;10.32;7.07;;;;;;;11.42;60.70;101244.81;4113126;28;20046;-69
2023/04/19 02:58:44;;;;;;;8.95;6.85;;;;;;;11.35;60.53;101245.50;4113025;28;20431;-69
2023/04/19 03:00:47;;;;;;;8.25;6.55;;;;;;;11.50;60.58;101239.75;4128163;28;20221;-70
2023/04/19 03:02:56;;;;;;;8.88;6.43;;;;;;;11.42;60.83;101242.19;4113533;28;21766;-69
2023/04/19 03:04:59;;;;;;;10.25;7.15;;;;;;;11.44;60.98;101248.31;4100212;28;20062;-70
2023/04/19 03:07:02;;;;;;;9.60;6.97;;;;;;;11.50;60.13;101239.75;4111034;28;20584;-70
2023/04/19 03:09:05;;;;;;;10.45;6.90;;;;;;;11.50;59.75;101240.63;4112301;28;20045;-70
2023/04/19 03:11:08;;;;;;;11.10;7.50;;;;;;;11.53;60.41;101242.44;4114457;28;20393;-69
2023/04/19 03:13:11;;;;;;;9.45;6.90;;;;;;;11.52;59.90;101244.16;4112257;28;20045;-70
2023/04/19 03:15:15;;;;;;;9.45;6.35;;;;;;;11.56;60.05;101234.69;4095563;29;20135;-69
2023/04/19 03:17:17;;;;;;;11.73;7.15;;;;;;;11.52;60.50;101232.84;4125646;28;20056;-69
2023/04/19 03:19:22;;;;;;;12.02;7.22;;;;;;;11.46;60.56;101228.41;4111175;28;20046;-69
2023/04/19 03:21:27;;;;;;;10.63;6.57;;;;;;;11.45;60.93;101226.63;4104799;28;20043;-70
2023/04/19 03:23:31;;;;;;;9.32;6.38;;;;;;;11.45;60.37;101231.84;4111914;28;20121;-70
2023/04/19 03:25:35;;;;;;;9.52;5.97;;;;;;;11.59;60.46;101228.66;4129355;28;20053;-70
2023/04/19 03:28:07;;;;;;;11.55;6.95;;;;;;;11.46;59.86;101223.19;4119944;28;20419;-69
2023/04/19 03:30:33;;;;;;;;;;;;;;;11.33;60.95;101221.13;4129158;28;20146;-70
2023/04/19 03:32:36;;;;;;;7.65;5.03;;;;;;;11.31;61.27;101221.09;4111961;28;20431;-70
2023/04/19 03:34:40;;;;;;;10.18;6.05;;;;;;;11.37;60.54;101219.50;4114309;28;20043;-69
2023/04/19 03:36:43;;;;;;;9.18;6.20;;;;;;;11.33;61.13;101215.94;4126941;28;20046;-69
2023/04/19 03:38:46;;;;;;;8.63;5.90;;;;;;;11.32;60.91;101211.59;4112190;28;20074;-70
2023/04/19 03:40:54;;;;;;;9.23;5.82;;;;;;;11.35;61.11;101216.88;4123453;28;20046;-69
2023/04/19 03:42:57;;;;;;;9.10;6.03;;;;;;;11.35;60.54;101214.25;4111655;28;20067;-70
2023/04/19 03:45:05;;;;;;;8.98;7.05;;;;;;;11.38;61.28;101209.13;4097456;28;20509;-69
2023/04/19 03:47:11;;;;;;;7.72;5.95;;;;;;;11.38;61.14;101216.06;4106255;28;20151;-69
2023/04/19 03:49:18;;;;;;;9.18;6.72;;;;;;;11.44;60.31;101211.00;4129067;28;20089;-69
2023/04/19 03:51:28;;;;;;;10.95;7.20;;;;;;;11.44;60.77;101205.78;4127514;28;20034;-69
2023/04/19 03:53:30;;;;;;;11.38;7.30;;;;;;;11.42;60.73;101208.34;4129355;28;20042;-70
2023/04/19 03:55:33;;;;;;;9.75;7.45;;;;;;;11.42;60.48;101203.16;4112300;28;20042;-70
2023/04/19 03:57:37;;;;;;;9.65;6.90;;;;;;;11.44;60.29;101198.84;4126425;28;20508;-70
2023/04/19 03:59:49;;;;;;;10.57;7.35;;;;;;;11.41;60.98;101193.56;4112642;28;20062;-70
2023/04/19 04:01:53;;;;;;;11.23;8.63;;;;;;;11.46;60.33;101196.25;4126241;28;20098;-70
2023/04/19 04:03:57;;;;;;;9.73;7.38;;;;;;;11.44;60.86;101195.38;4127057;28;20037;-70
2023/04/19 04:06:01;;;;;;;9.00;7.30;;;;;;;11.44;60.43;101198.84;4127951;28;20074;-69
2023/04/19 04:08:06;;;;;;;9.70;7.13;;;;;;;11.51;60.66;101198.13;4110046;28;20067;-69
2023/04/19 04:10:09;;;;;;;10.00;7.13;;;;;;;11.50;60.55;101206.78;4113401;28;20041;-69
2023/04/19 04:12:17;;;;;;;8.75;6.95;;;;;;;11.44;60.42;101200.56;4110297;28;20039;-70
2023/04/19 04:14:20;;;;;;;10.40;7.55;;;;;;;11.42;60.95;101203.16;4122873;28;20081;-69
2023/04/19 04:16:23;;;;;;;9.65;7.60;;;;;;;11.45;60.51;101203.22;4109109;28;20076;-70
2023/04/19 04:18:27;;;;;;;13.65;8.02;;;;;;;11.44;60.05;101203.19;4111598;28;20093;-70
2023/04/19 04:20:30;;;;;;;10.70;7.72;;;;;;;11.46;60.21;101206.69;4110580;28;20050;-71
2023/04/19 04:22:41;;;;;;;9.90;7.50;;;;;;;11.36;60.68;101203.00;4105622;28;20057;-68
2023/04/19 04:24:48;;;;;;;10.10;7.72;;;;;;;11.35;60.98;101209.06;4101923;28;20055;-69
2023/04/19 04:27:02;;;;;;;14.35;8.55;;;;;;;11.41;61.41;101209.19;4121356;28;20042;-64
2023/04/19 04:29:08;;;;;;;12.30;8.77;;;;;;;11.49;61.67;101212.84;4122912;28;20066;-63
2023/04/19 04:31:16;;;;;;;11.45;8.27;;;;;;;11.58;60.90;101211.28;4129412;28;20129;-63
2023/04/19 04:33:20;;;;;;;12.68;8.50;;;;;;;11.57;61.34;101206.94;4106922;28;20038;-63
2023/04/19 04:35:23;;;;;;;13.70;8.57;;;;;;;11.69;60.06;101209.78;4119563;28;20094;-63
2023/04/19 04:37:33;;;;;;;10.88;8.55;;;;;;;11.69;59.37;101217.63;4117362;28;20046;-63
2023/04/19 04:39:38;;;;;;;11.15;8.13;;;;;;;11.64;59.53;101214.91;4109495;28;20516;-63
2023/04/19 04:41:43;;;;;;;9.77;7.72;;;;;;;11.59;59.51;101218.25;4131807;28;20045;-63
2023/04/19 04:43:50;;;;;;;13.65;8.15;;;;;;;11.56;59.43;101205.16;4128626;28;20038;-63
2023/04/19 04:46:11;;;;;;;9.75;7.63;;;;;;;11.47;60.64;101213.66;4094213;29;20098;-64
2023/04/19 04:48:16;;;;;;;10.85;7.75;;;;;;;11.45;59.81;101221.44;4123536;28;20039;-63
2023/04/19 04:50:19;;;;;;;12.13;8.18;;;;;;;11.51;60.15;101221.56;4108735;28;20039;-63
2023/04/19 04:52:23;;;;;;;12.60;7.88;;;;;;;11.60;59.79;101215.69;4109447;28;20424;-63
2023/04/19 04:54:35;;;;;;;12.88;8.38;;;;;;;11.60;60.01;101210.47;4133996;23;20069;-62
2023/04/19 04:56:39;;;;;;;10.95;7.88;;;;;;;11.52;60.30;101215.53;4145738;28;20045;-61
2023/04/19 04:58:43;;;;;;;11.07;7.53;;;;;;;11.45;60.84;101216.22;4122038;28;20038;-70
2023/04/19 05:00:51;;;;;;;10.90;7.88;;;;;;;11.32;60.58;101211.59;4122619;28;20041;-69
2023/04/19 05:02:54;;;;;;;11.50;8.75;;;;;;;11.35;61.06;101215.13;4123372;28;20516;-69
2023/04/19 05:04:58;;;;;;;13.20;8.80;;;;;;;11.38;60.81;101213.47;4100094;28;20035;-69
2023/04/19 05:07:01;;;;;;;11.27;8.00;;;;;;;11.35;60.46;101216.88;4110987;28;20035;-69
2023/04/19 05:09:04;;;;;;;11.82;7.72;;;;;;;11.34;61.11;101220.31;4096710;29;20529;-69
2023/04/19 05:11:09;;;;;;;11.73;7.72;;;;;;;11.37;61.16;101217.75;4109475;28;20046;-69
2023/04/19 05:13:13;;;;;;;11.00;8.15;;;;;;;11.37;60.89;101215.16;4123695;28;20154;-68
2023/04/19 05:15:17;;;;;;;11.32;8.00;;;;;;;11.33;61.58;101218.53;4092154;29;20114;-69
2023/04/19 05:17:25;;;;;;;11.15;8.23;;;;;;;11.34;60.85;101221.16;4106762;28;20043;-69
2023/04/19 05:19:28;;;;;;;11.27;7.15;;;;;;;11.35;60.93;101224.66;4115108;28;20046;-70
2023/04/19 05:21:36;;;;;;;12.60;7.95;;;;;;;11.37;61.55;101222.09;4130022;28;20404;-69
2023/04/19 05:23:40;;;;;;;16.67;8.98;;;;;;;11.34;61.17;101228.97;4096249;29;20098;-69
2023/04/19 05:25:46;;;;;;;12.40;8.70;;;;;;;11.39;61.76;101228.22;4113724;28;20038;-69
2023/04/19 05:27:49;;;;;;;11.30;8.45;;;;;;;11.46;61.37;101230.13;4114033;28;20402;-69
2023/04/19 05:29:52;;;;;;;13.13;8.48;;;;;;;11.45;60.76;101223.16;4097870;28;20050;-69
2023/04/19 05:31:58;;;;;;;;;;;;;;;11.39;60.99;101220.41;4114722;28;20039;-70
2023/04/19 05:34:04;;;;;;;11.57;8.55;;;;;;;11.40;61.78;101223.03;4112692;28;19922;-71
2023/04/19 05:36:08;;;;;;;11.85;8.25;;;;;;;11.45;61.02;101230.97;4112448;28;20115;-69
2023/04/19 05:38:10;;;;;;;13.75;8.90;;;;;;;11.44;60.98;101224.88;4112672;28;20042;-71
2023/04/19 05:40:14;;;;;;;12.68;9.02;;;;;;;11.50;61.31;101219.78;4123479;28;20038;-71
2023/04/19 05:42:18;;;;;;;12.65;9.00;;;;;;;11.43;61.35;101222.22;4106984;28;20150;-71
2023/04/19 05:44:21;;;;;;;11.77;7.65;;;;;;;11.58;60.95;101220.00;4109192;28;20125;-71
2023/04/19 05:46:24;;;;;;;12.13;8.85;;;;;;;11.44;61.66;101224.88;4115229;28;20050;-71
2023/04/19 05:48:29;;;;;;;10.48;7.57;;;;;;;11.51;61.34;101220.69;4113920;28;20564;-71
2023/04/19 05:50:53;;;;;;;10.90;8.20;;;;;;;11.44;62.14;101221.41;4117522;28;20133;-71
2023/04/19 05:53:08;;;;;;;11.68;8.27;;;;;;;11.52;61.63;101223.34;4101623;28;20501;-71
2023/04/19 05:55:11;;;;;;;11.43;8.50;;;;;;;11.50;61.23;101219.78;4094993;28;20142;-70
2023/04/19 05:57:18;;;;;;;14.13;9.38;;;;;;;11.52;60.88;101214.63;4120895;28;20408;-71
2023/04/19 05:59:20;;;;;;;9.98;8.13;;;;;;;11.52;61.03;101222.44;4128041;28;20034;-72
2023/04/19 06:01:24;;;;;;;11.20;9.20;;;;;;;11.59;61.40;101223.47;4113668;28;20062;-70
2023/04/19 06:03:26;;;;;;;12.88;9.02;;;;;;;11.59;61.51;101224.34;4113724;28;20488;-71
2023/04/19 06:05:35;;;;;;;12.63;9.48;;;;;;;11.63;61.30;101222.69;4116272;28;20106;-71
2023/04/19 06:07:38;;;;;;;11.10;7.30;;;;;;;11.65;61.17;101223.59;4115200;28;20130;-70
2023/04/19 06:09:48;;;;;;;11.98;8.82;;;;;;;11.68;60.76;101223.66;4107233;28;20131;-71
2023/04/19 06:11:53;;;;;;;10.38;8.23;;;;;;;11.76;61.35;101227.31;4113451;28;20031;-71
2023/04/19 06:13:56;;;;;;;11.40;8.10;;;;;;;11.85;60.45;101227.50;4118830;28;20575;-70
2023/04/19 06:15:59;;;;;;;13.70;7.95;;;;;;;11.81;60.97;101230.03;4099790;28;20205;-70
2023/04/19 06:18:02;;;;;;;10.80;8.00;;;;;;;11.90;60.66;101218.91;4109641;28;20579;-70
2023/04/19 06:20:07;;;;;;;15.27;9.25;;;;;;;11.83;60.56;101226.59;4112737;28;20548;-71
2023/04/19 06:22:11;;;;;;;12.40;9.25;;;;;;;11.92;60.55;101232.88;4094756;28;20094;-71
2023/04/19 06:24:14;;;;;;;11.50;8.57;;;;;;;11.83;60.89;101233.56;4115895;28;20062;-70
2023/04/19 06:26:17;;;;;;;10.63;8.32;;;;;;;11.79;61.66;101243.00;4110461;28;20043;-70
2023/04/19 06:28:20;;;;;;;16.15;10.10;;;;;;;11.84;60.50;101236.19;4115561;28;20046;-70
2023/04/19 06:30:23;;;;;;;11.07;9.02;;;;;;;11.77;61.31;101234.31;4112349;28;20051;-70
2023/04/19 06:32:29;;;;;;;14.65;10.07;;;;;;;11.76;61.81;101234.28;4112070;28;20050;-70
2023/04/19 06:34:31;;;;;;;13.25;9.32;;;;;;;11.80;61.58;101229.16;4112102;28;20043;-70
2023/04/19 06:36:34;;;;;;;11.95;8.30;;;;;;;11.76;61.79;101226.44;4110261;28;20512;-70
2023/04/19 06:38:40;;;;;;;10.85;8.68;;;;;;;11.78;61.94;101228.22;4116048;28;20045;-70
2023/04/19 06:40:43;;;;;;;12.05;8.48;;;;;;;11.85;61.52;101227.50;4116559;28;20512;-71
2023/04/19 06:42:46;;;;;;;13.32;9.25;;;;;;;11.97;61.15;101228.66;4114674;28;20459;-70
2023/04/19 06:44:49;;;;;;;11.50;8.75;;;;;;;11.97;61.46;101224.34;4099190;28;20039;-70
2023/04/19 06:46:51;;;;;;;12.60;8.85;;;;;;;11.96;61.15;101222.56;4109371;28;20077;-70
2023/04/19 06:48:54;;;;;;;14.57;9.77;;;;;;;12.08;61.55;101218.47;4110240;28;20534;-70
2023/04/19 06:50:57;;;;;;;14.18;9.50;;;;;;;12.13;60.97;101214.22;4108971;28;21265;-70
2023/04/19 06:53:00;;;;;;;13.02;9.80;;;;;;;12.26;60.87;101217.94;4113143;28;20035;-70
2023/04/19 06:55:09;;;;;;;12.82;9.43;;;;;;;12.27;60.99;101210.16;4115332;28;20038;-70
2023/04/19 06:57:12;;;;;;;15.13;9.95;;;;;;;12.37;59.82;101208.59;4114219;28;20054;-71
2023/04/19 06:59:18;;;;;;;11.70;9.05;;;;;;;12.34;60.53;101205.94;4115706;28;20500;-69
2023/04/19 07:01:21;;;;;;;10.43;8.45;;;;;;;12.43;60.08;101216.53;4110370;28;20290;-70
2023/04/19 07:03:23;;;;;;;10.73;8.38;;;;;;;12.33;60.29;101207.66;4114251;28;20390;-70
2023/04/19 07:05:27;;;;;;;12.70;8.68;;;;;;;12.31;60.10;101206.75;4115066;28;20047;-70
2023/04/19 07:07:30;;;;;;;12.68;9.25;;;;;;;12.36;60.52;101205.09;4114405;28;20505;-70
2023/04/19 07:09:33;;;;;;;12.07;8.90;;;;;;;12.44;59.85;101207.88;4113564;28;20412;-71
2023/04/19 07:11:37;;;;;;;12.55;9.68;;;;;;;12.52;59.98;101208.00;4124835;28;20100;-70
2023/04/19 07:13:40;;;;;;;13.02;9.38;;;;;;;12.66;59.60;101205.63;4113165;28;20043;-70
2023/04/19 07:15:43;;;;;;;13.63;8.98;;;;;;;12.80;59.28;101205.88;4109032;28;20043;-70
2023/04/19 07:17:46;;;;;;;11.50;8.80;;;;;;;12.78;59.50;101205.00;4113341;28;20068;-70
2023/04/19 07:19:49;;;;;;;12.60;8.95;;;;;;;12.81;59.56;101203.31;4114230;28;20069;-70
2023/04/19 07:21:52;;;;;;;13.65;9.70;;;;;;;12.87;59.15;101205.13;4114617;28;20042;-71
2023/04/19 07:23:55;;;;;;;12.80;9.13;;;;;;;12.80;59.08;101204.13;4113331;28;20031;-70
2023/04/19 07:25:57;;;;;;;12.45;9.75;;;;;;;12.64;59.77;101197.78;4103575;28;20035;-70
2023/04/19 07:28:02;;;;;;;11.82;7.95;;;;;;;12.52;60.11;101201.06;4109276;28;20401;-70
2023/04/19 07:30:07;;;;;;;12.20;8.77;;;;;;;12.61;60.45;101204.69;4113249;28;20405;-70
2023/04/19 07:32:10;;;;;;;12.93;9.80;;;;;;;12.65;60.24;101206.50;4110462;28;20039;-70
2023/04/19 07:34:13;;;;;;;16.50;8.98;;;;;;;12.67;60.00;101203.03;4113211;28;20154;-69
2023/04/19 07:36:16;;;;;;;13.85;9.85;;;;;;;12.70;60.27;101197.91;4096536;28;20051;-69
2023/04/19 07:38:19;;;;;;;16.15;9.75;;;;;;;12.60;60.91;101195.09;4113560;28;20055;-70
2023/04/19 07:40:22;;;;;;;12.98;9.25;;;;;;;12.55;60.78;101195.03;4117238;28;20061;-70
2023/04/19 07:42:25;;;;;;;12.38;8.85;;;;;;;12.58;61.06;101198.53;4117000;28;20046;-70
2023/04/19 07:44:29;;;;;;;13.55;8.80;;;;;;;12.54;61.56;101194.16;4115280;28;20041;-70
2023/04/19 07:46:32;;;;;;;11.45;8.18;;;;;;;12.67;60.87;101190.00;4116769;28;20101;-70
2023/04/19 07:48:35;;;;;;;12.48;8.98;;;;;;;12.67;60.92;101194.34;4115199;28;20089;-70
2023/04/19 07:50:38;;;;;;;13.00;8.85;;;;;;;12.72;60.84;101192.72;4112342;28;20077;-70
2023/04/19 07:52:41;;;;;;;12.20;8.13;;;;;;;12.72;60.27;101193.59;4107891;28;20122;-70
2023/04/19 07:54:44;;;;;;;11.98;7.15;;;;;;;12.74;60.42;101196.22;4102754;28;20039;-69
2023/04/19 07:56:47;;;;;;;8.88;6.45;;;;;;;12.78;60.21;101190.22;4114372;28;20047;-71
2023/04/19 07:58:49;;;;;;;10.80;7.20;;;;;;;12.73;60.57;101195.34;4116900;28;20131;-70
2023/04/19 08:01:11;;;;;;;12.77;7.82;;;;;;;12.77;60.08;101188.44;4116392;28;20043;-70
2023/04/19 08:03:14;;;;;;;12.98;7.75;;;;;;;12.93;59.37;101198.28;4114767;28;20043;-70
2023/04/19 08:05:20;;;;;;;12.88;6.93;;;;;;;12.84;59.59;101184.22;4115122;28;20501;-70
2023/04/19 08:07:24;;;;;;;9.85;6.78;;;;;;;12.71;60.00;101188.34;4115382;28;20070;-70
2023/04/19 08:09:27;;;;;;;10.10;7.63;;;;;;;12.64;60.73;101186.47;4115887;28;20042;-70
2023/04/19 08:11:30;;;;;;;9.82;7.03;;;;;;;12.76;60.52;101186.66;4113030;28;20043;-71
2023/04/19 08:13:33;;;;;;;10.02;7.10;;;;;;;12.78;60.69;101181.50;4100934;28;20036;-70
2023/04/19 08:15:36;;;;;;;10.60;7.20;;;;;;;12.92;59.86;101180.88;4112297;28;20073;-70
2023/04/19 08:18:03;;;;;;;9.68;7.10;;;;;;;12.93;59.77;101180.00;4114523;28;20122;-71
2023/04/19 08:20:08;;;;;;;9.07;5.82;;;;;;;12.98;59.55;101173.97;4114667;28;20046;-71
2023/04/19 08:22:11;;;;;;;10.73;7.05;;;;;;;12.98;59.43;101176.59;4112893;28;20106;-70
2023/04/19 08:24:13;;;;;;;8.07;6.00;;;;;;;12.96;59.57;101170.47;4114457;28;20377;-70
2023/04/19 08:26:17;;;;;;;13.23;7.10;;;;;;;13.04;60.17;101166.25;4112551;28;20074;-70
2023/04/19 08:28:19;;;;;;;9.30;6.60;;;;;;;13.09;59.87;101172.44;4108413;28;20047;-70
2023/04/19 08:30:23;;;;;;;9.77;6.85;;;;;;;13.07;60.33;101171.53;4109613;28;20043;-70
2023/04/19 08:32:26;;;;;;;11.38;8.60;;;;;;;13.07;60.27;101171.53;4113090;28;20041;-70
2023/04/19 08:34:30;;;;;;;9.10;6.90;;;;;;;13.16;59.94;101168.19;4106540;28;20084;-72
2023/04/19 08:36:33;;;;;;;10.48;8.40;;;;;;;13.18;59.66;101172.56;4108393;28;20050;-70
2023/04/19 08:38:45;;;;;;;9.13;7.13;;;;;;;13.08;60.30;101175.88;4112692;28;20516;-69
2023/04/19 08:41:01;;;;;;;13.98;7.45;;;;;;;13.13;60.09;101161.19;4113472;28;20045;-70
2023/04/19 08:43:05;;;;;;;10.52;7.97;;;;;;;13.21;59.90;101167.38;4115032;28;20150;-69
2023/04/19 08:45:10;;;;;;;;;;;;;;;13.25;59.90;101161.34;4116144;28;20476;-70
2023/04/19 08:47:32;;;;;;;9.25;6.80;;;;;;;13.18;60.48;101163.84;4114765;28;19968;-70
2023/04/19 08:49:39;;;;;;;10.95;7.68;;;;;;;13.24;59.86;101164.84;4114533;28;20160;-69
2023/04/19 08:51:46;;;;;;;10.77;7.75;;;;;;;13.21;60.59;101163.91;4111655;28;20540;-70
2023/04/19 08:53:49;;;;;;;10.80;7.93;;;;;;;13.29;59.91;101164.91;4109390;28;20420;-70
2023/04/19 08:55:57;;;;;;;11.10;7.47;;;;;;;13.33;59.94;101158.88;4112869;28;20053;-70
2023/04/19 08:58:04;;;;;;;12.25;7.95;;;;;;;13.42;58.88;101155.53;4111023;28;20046;-70
2023/04/19 09:00:15;;;;;;;11.25;7.93;;;;;;;13.44;59.56;101159.03;4106936;28;20073;-70
2023/04/19 09:02:18;;;;;;;9.18;6.57;;;;;;;13.39;59.40;101155.47;4112444;28;20038;-70
2023/04/19 09:04:21;;;;;;;11.15;8.07;;;;;;;13.57;59.65;101160.09;4114430;28;20041;-70
2023/04/19 09:06:40;;;;;;;10.15;7.90;;;;;;;13.57;59.09;101149.63;4111639;28;20035;-70
2023/04/19 09:08:44;;;;;;;13.35;8.50;;;;;;;13.66;58.52;101149.75;4107316;28;20382;-69
2023/04/19 09:10:53;;;;;;;13.55;8.98;;;;;;;13.71;57.79;101142.84;4107824;28;20133;-71
2023/04/19 09:13:01;;;;;;;11.38;8.48;;;;;;;13.65;58.36;101139.28;4109959;28;20295;-70
2023/04/19 09:15:07;;;;;;;10.30;8.55;;;;;;;13.64;58.94;101141.03;4106878;28;20798;-70
2023/04/19 09:17:13;;;;;;;9.63;7.35;;;;;;;13.70;58.14;101137.59;4127311;28;20070;-70
2023/04/19 09:19:19;;;;;;;11.77;7.95;;;;;;;13.69;58.86;101143.69;4122696;28;20068;-70
2023/04/19 09:21:30;;;;;;;13.55;8.70;;;;;;;13.72;58.69;101128.91;4112144;28;20509;-71
2023/04/19 09:23:47;;;;;;;14.80;8.55;;;;;;;13.71;58.74;101129.78;4104837;28;20051;-71
2023/04/19 09:25:55;;;;;;;14.27;8.68;;;;;;;13.71;58.58;101135.00;4126266;28;20042;-70
2023/04/19 09:28:18;;;;;;;15.38;8.82;;;;;;;13.74;58.63;101126.31;4113317;28;20432;-70
2023/04/19 09:30:25;;;;;;;12.15;8.18;;;;;;;13.71;59.31;101126.28;4110173;28;20046;-70
2023/04/19 09:32:48;;;;;;;10.77;8.02;;;;;;;13.71;58.75;101128.88;4112387;28;20038;-70
2023/04/19 09:34:53;;;;;;;12.02;8.80;;;;;;;13.58;59.29;101123.53;4106500;28;20127;-70
2023/04/19 09:36:56;;;;;;;12.55;9.00;;;;;;;13.63;58.10;101112.25;4111427;28;20046;-71
2023/04/19 09:39:28;;;;;;;12.43;8.20;;;;;;;13.57;58.64;101121.75;4111159;28;20078;-70